PWSweather.com
Personal Weather Stations
Station Observations
NORTHPOLE1
Tombur Subdivision, North Pole, AK 99705

Tombur SubdivisionNorth Pole, AK 99705

Lat: 64.774039, Lon: -147.284862

Elevation: 434

Station Type: Davis Vantage Pro 2

http://kl7ac.com

High Low Average
Temperature 46.3°F7.9°C 11.2°F-11.6°C 28.9°F-1.7°C
Dew Point 25.0°F-3.9°C 6.8°F-14.0°C 17.1°F-8.3°C
Winds 4.0 mph 6.4 kmh Calm Calm 1.0 mph NE1.6 kmh NE
Wind Gusts 9.0 mph14.5 kmh -- 3.0 mph4.8 kmh
Humidity 85% 36% 64%
Pressure 29.71 in1006.1 mb 29.33 in993.2 mb -
Precipitation 0.02 in0.5 mm - -
Hour Temp Dew Point Humidity Winds Wind Gusts Pressure Precip Precip Rate Daily Precip Total
12:00 AM 26.4°F-3.1°C 17.9°F-7.8°C 70% 3.0 mph NE4.8 kmh NE 8.0 mph12.9 kmh 29.71 in1006.1 mb 0.00 in0.0 mm 0.00 in0.0 mm 0.00 in0.0 mm
12:05 AM 26.7°F-2.9°C 17.6°F-8.0°C 68% 3.0 mph NE4.8 kmh NE 8.0 mph12.9 kmh 29.70 in1005.8 mb 0.00 in0.0 mm 0.00 in0.0 mm 0.00 in0.0 mm
12:10 AM 27.1°F-2.7°C 17.6°F-8.0°C 67% 3.0 mph NE4.8 kmh NE 8.0 mph12.9 kmh 29.70 in1005.8 mb 0.00 in0.0 mm 0.00 in0.0 mm 0.00 in0.0 mm
12:15 AM 27.3°F-2.6°C 18.1°F-7.7°C 68% 3.0 mph NE4.8 kmh NE 6.0 mph9.7 kmh 29.70 in1005.8 mb 0.00 in0.0 mm 0.00 in0.0 mm 0.00 in0.0 mm
12:20 AM 27.1°F-2.7°C 17.9°F-7.8°C 68% 3.0 mph NE4.8 kmh NE 6.0 mph9.7 kmh 29.70 in1005.8 mb 0.00 in0.0 mm 0.00 in0.0 mm 0.00 in0.0 mm
12:25 AM 26.7°F-2.9°C 17.6°F-8.0°C 68% 3.0 mph NE4.8 kmh NE 6.0 mph9.7 kmh 29.70 in1005.8 mb 0.00 in0.0 mm 0.00 in0.0 mm 0.00 in0.0 mm
12:30 AM 26.6°F-3.0°C 17.1°F-8.3°C 67% 3.0 mph ENE4.8 kmh ENE 6.0 mph9.7 kmh 29.70 in1005.8 mb 0.00 in0.0 mm 0.00 in0.0 mm 0.00 in0.0 mm
12:35 AM 26.7°F-2.9°C 17.6°F-8.0°C 68% 4.0 mph NE6.4 kmh NE 7.0 mph11.3 kmh 29.70 in1005.8 mb 0.00 in0.0 mm 0.00 in0.0 mm 0.00 in0.0 mm
12:40 AM 26.9°F-2.8°C 17.4°F-8.1°C 67% 3.0 mph NE4.8 kmh NE 7.0 mph11.3 kmh 29.70 in1005.8 mb 0.00 in0.0 mm 0.00 in0.0 mm 0.00 in0.0 mm
12:45 AM 26.8°F-2.9°C 17.3°F-8.2°C 67% 3.0 mph NE4.8 kmh NE 6.0 mph9.7 kmh 29.70 in1005.8 mb 0.00 in0.0 mm 0.00 in0.0 mm 0.00 in0.0 mm
12:50 AM 26.3°F-3.2°C 16.8°F-8.4°C 67% 2.0 mph NE3.2 kmh NE 5.0 mph8.0 kmh 29.70 in1005.8 mb 0.00 in0.0 mm 0.00 in0.0 mm 0.00 in0.0 mm
12:55 AM 25.8°F-3.4°C 16.7°F-8.5°C 68% 2.0 mph NE3.2 kmh NE 7.0 mph11.3 kmh 29.70 in1005.8 mb 0.00 in0.0 mm 0.00 in0.0 mm 0.00 in0.0 mm
01:00 AM 25.3°F-3.7°C 16.2°F-8.8°C 68% 2.0 mph NE3.2 kmh NE 7.0 mph11.3 kmh 29.70 in1005.8 mb 0.00 in0.0 mm 0.00 in0.0 mm 0.00 in0.0 mm
01:05 AM 24.8°F-4.0°C 16.1°F-8.8°C 69% 1.0 mph NE1.6 kmh NE 4.0 mph6.4 kmh 29.70 in1005.8 mb 0.00 in0.0 mm 0.00 in0.0 mm 0.00 in0.0 mm
01:10 AM 24.4°F-4.2°C 16.3°F-8.7°C 71% 2.0 mph NE3.2 kmh NE 7.0 mph11.3 kmh 29.69 in1005.4 mb 0.00 in0.0 mm 0.00 in0.0 mm 0.00 in0.0 mm
01:15 AM 24.5°F-4.2°C 16.4°F-8.7°C 71% 3.0 mph NE4.8 kmh NE 9.0 mph14.5 kmh 29.69 in1005.4 mb 0.00 in0.0 mm 0.00 in0.0 mm 0.00 in0.0 mm
01:20 AM 24.6°F-4.1°C 16.2°F-8.8°C 70% 3.0 mph NE4.8 kmh NE 9.0 mph14.5 kmh 29.69 in1005.4 mb 0.00 in0.0 mm 0.00 in0.0 mm 0.00 in0.0 mm
01:25 AM 24.5°F-4.2°C 16.1°F-8.8°C 70% 3.0 mph NE4.8 kmh NE 7.0 mph11.3 kmh 29.69 in1005.4 mb 0.00 in0.0 mm 0.00 in0.0 mm 0.00 in0.0 mm
01:30 AM 24.3°F-4.3°C 16.2°F-8.8°C 71% 2.0 mph NE3.2 kmh NE 7.0 mph11.3 kmh 29.69 in1005.4 mb 0.00 in0.0 mm 0.00 in0.0 mm 0.00 in0.0 mm
01:35 AM 23.9°F-4.5°C 15.9°F-8.9°C 71% 2.0 mph NE3.2 kmh NE 7.0 mph11.3 kmh 29.69 in1005.4 mb 0.00 in0.0 mm 0.00 in0.0 mm 0.00 in0.0 mm
01:40 AM 23.7°F-4.6°C 15.3°F-9.3°C 70% 2.0 mph ENE3.2 kmh ENE 6.0 mph9.7 kmh 29.69 in1005.4 mb 0.00 in0.0 mm 0.00 in0.0 mm 0.00 in0.0 mm
01:45 AM 23.5°F-4.7°C 15.8°F-9.0°C 72% 2.0 mph ENE3.2 kmh ENE 6.0 mph9.7 kmh 29.69 in1005.4 mb 0.00 in0.0 mm 0.00 in0.0 mm 0.00 in0.0 mm
01:50 AM 23.3°F-4.8°C 15.3°F-9.3°C 71% 1.0 mph NE1.6 kmh NE 5.0 mph8.0 kmh 29.69 in1005.4 mb 0.00 in0.0 mm 0.00 in0.0 mm 0.00 in0.0 mm
01:55 AM 23.2°F-4.9°C 15.2°F-9.3°C 71% 1.0 mph NE1.6 kmh NE 4.0 mph6.4 kmh 29.69 in1005.4 mb 0.00 in0.0 mm 0.00 in0.0 mm 0.00 in0.0 mm
02:00 AM 23.0°F-5.0°C 15.0°F-9.4°C 71% 1.0 mph NE1.6 kmh NE 4.0 mph6.4 kmh 29.69 in1005.4 mb 0.00 in0.0 mm 0.00 in0.0 mm 0.00 in0.0 mm
02:05 AM 22.8°F-5.1°C 14.8°F-9.6°C 71% 1.0 mph NE1.6 kmh NE 4.0 mph6.4 kmh 29.69 in1005.4 mb 0.00 in0.0 mm 0.00 in0.0 mm 0.00 in0.0 mm
02:10 AM 22.7°F-5.2°C 15.0°F-9.4°C 72% 1.0 mph NE1.6 kmh NE 4.0 mph6.4 kmh 29.69 in1005.4 mb 0.00 in0.0 mm 0.00 in0.0 mm 0.00 in0.0 mm
02:15 AM 22.4°F-5.3°C 14.7°F-9.6°C 72% 1.0 mph NE1.6 kmh NE 4.0 mph6.4 kmh 29.69 in1005.4 mb 0.00 in0.0 mm 0.00 in0.0 mm 0.00 in0.0 mm
02:20 AM 22.2°F-5.4°C 14.9°F-9.5°C 73% 1.0 mph NE1.6 kmh NE 4.0 mph6.4 kmh 29.69 in1005.4 mb 0.00 in0.0 mm 0.00 in0.0 mm 0.00 in0.0 mm
02:25 AM 21.9°F-5.6°C 14.9°F-9.5°C 74% 1.0 mph NE1.6 kmh NE 4.0 mph6.4 kmh 29.69 in1005.4 mb 0.00 in0.0 mm 0.00 in0.0 mm 0.00 in0.0 mm
02:30 AM 21.6°F-5.8°C 14.9°F-9.5°C 75% 1.0 mph NE1.6 kmh NE 3.0 mph4.8 kmh 29.69 in1005.4 mb 0.00 in0.0 mm 0.00 in0.0 mm 0.00 in0.0 mm
02:35 AM 21.4°F-5.9°C 14.7°F-9.6°C 75% Calm Calm 2.0 mph3.2 kmh 29.69 in1005.4 mb 0.00 in0.0 mm 0.00 in0.0 mm 0.00 in0.0 mm
02:40 AM 21.1°F-6.1°C 14.7°F-9.6°C 76% Calm Calm 2.0 mph3.2 kmh 29.69 in1005.4 mb 0.00 in0.0 mm 0.00 in0.0 mm 0.00 in0.0 mm
02:45 AM 20.8°F-6.2°C 14.4°F-9.8°C 76% Calm Calm 2.0 mph3.2 kmh 29.68 in1005.1 mb 0.00 in0.0 mm 0.00 in0.0 mm 0.00 in0.0 mm
02:50 AM 20.6°F-6.3°C 14.2°F-9.9°C 76% Calm Calm 3.0 mph4.8 kmh 29.68 in1005.1 mb 0.00 in0.0 mm 0.00 in0.0 mm 0.00 in0.0 mm
02:55 AM 20.2°F-6.6°C 13.8°F-10.1°C 76% 1.0 mph NE1.6 kmh NE 3.0 mph4.8 kmh 29.68 in1005.1 mb 0.00 in0.0 mm 0.00 in0.0 mm 0.00 in0.0 mm
03:00 AM 20.0°F-6.7°C 13.6°F-10.2°C 76% 1.0 mph NE1.6 kmh NE 3.0 mph4.8 kmh 29.68 in1005.1 mb 0.00 in0.0 mm 0.00 in0.0 mm 0.00 in0.0 mm
03:05 AM 19.7°F-6.8°C 13.7°F-10.2°C 77% Calm Calm 2.0 mph3.2 kmh 29.68 in1005.1 mb 0.00 in0.0 mm 0.00 in0.0 mm 0.00 in0.0 mm
03:10 AM 19.7°F-6.8°C 14.0°F-10.0°C 78% Calm Calm 2.0 mph3.2 kmh 29.68 in1005.1 mb 0.00 in0.0 mm 0.00 in0.0 mm 0.00 in0.0 mm
03:15 AM 19.4°F-7.0°C 13.7°F-10.2°C 78% 1.0 mph NE1.6 kmh NE 3.0 mph4.8 kmh 29.68 in1005.1 mb 0.00 in0.0 mm 0.00 in0.0 mm 0.00 in0.0 mm
03:20 AM 19.1°F-7.2°C 13.1°F-10.5°C 77% 1.0 mph NNE1.6 kmh NNE 4.0 mph6.4 kmh 29.67 in1004.7 mb 0.00 in0.0 mm 0.00 in0.0 mm 0.00 in0.0 mm
03:25 AM 18.9°F-7.3°C 12.9°F-10.6°C 77% 1.0 mph NNE1.6 kmh NNE 4.0 mph6.4 kmh 29.67 in1004.7 mb 0.00 in0.0 mm 0.00 in0.0 mm 0.00 in0.0 mm
03:30 AM 18.6°F-7.4°C 12.6°F-10.8°C 77% 1.0 mph NE1.6 kmh NE 4.0 mph6.4 kmh 29.67 in1004.7 mb 0.00 in0.0 mm 0.00 in0.0 mm 0.00 in0.0 mm
03:35 AM 18.4°F-7.6°C 12.7°F-10.7°C 78% 1.0 mph NE1.6 kmh NE 4.0 mph6.4 kmh 29.67 in1004.7 mb 0.00 in0.0 mm 0.00 in0.0 mm 0.00 in0.0 mm
03:40 AM 18.3°F-7.6°C 12.6°F-10.8°C 78% 1.0 mph NE1.6 kmh NE 4.0 mph6.4 kmh 29.67 in1004.7 mb 0.00 in0.0 mm 0.00 in0.0 mm 0.00 in0.0 mm
03:45 AM 18.2°F-7.7°C 12.5°F-10.8°C 78% 1.0 mph NE1.6 kmh NE 4.0 mph6.4 kmh 29.67 in1004.7 mb 0.00 in0.0 mm 0.00 in0.0 mm 0.00 in0.0 mm
03:50 AM 18.1°F-7.7°C 12.4°F-10.9°C 78% 1.0 mph NE1.6 kmh NE 3.0 mph4.8 kmh 29.67 in1004.7 mb 0.00 in0.0 mm 0.00 in0.0 mm 0.00 in0.0 mm
03:55 AM 17.9°F-7.8°C 12.5°F-10.8°C 79% 1.0 mph NE1.6 kmh NE 3.0 mph4.8 kmh 29.67 in1004.7 mb 0.00 in0.0 mm 0.00 in0.0 mm 0.00 in0.0 mm
04:00 AM 17.7°F-7.9°C 12.6°F-10.8°C 80% 1.0 mph NE1.6 kmh NE 3.0 mph4.8 kmh 29.67 in1004.7 mb 0.00 in0.0 mm 0.00 in0.0 mm 0.00 in0.0 mm
04:05 AM 17.6°F-8.0°C 12.2°F-11.0°C 79% 1.0 mph NE1.6 kmh NE 3.0 mph4.8 kmh 29.67 in1004.7 mb 0.00 in0.0 mm 0.00 in0.0 mm 0.00 in0.0 mm
04:10 AM 17.6°F-8.0°C 12.2°F-11.0°C 79% 1.0 mph NE1.6 kmh NE 3.0 mph4.8 kmh 29.67 in1004.7 mb 0.00 in0.0 mm 0.00 in0.0 mm 0.00 in0.0 mm
04:15 AM 17.5°F-8.1°C 12.1°F-11.1°C 79% 1.0 mph NE1.6 kmh NE 3.0 mph4.8 kmh 29.67 in1004.7 mb 0.00 in0.0 mm 0.00 in0.0 mm 0.00 in0.0 mm
04:20 AM 17.3°F-8.2°C 11.9°F-11.2°C 79% Calm Calm 2.0 mph3.2 kmh 29.67 in1004.7 mb 0.00 in0.0 mm 0.00 in0.0 mm 0.00 in0.0 mm
04:25 AM 17.1°F-8.3°C 11.7°F-11.3°C 79% Calm Calm 2.0 mph3.2 kmh 29.67 in1004.7 mb 0.00 in0.0 mm 0.00 in0.0 mm 0.00 in0.0 mm
04:30 AM 16.9°F-8.4°C 11.8°F-11.2°C 80% Calm Calm 1.0 mph1.6 kmh 29.67 in1004.7 mb 0.00 in0.0 mm 0.00 in0.0 mm 0.00 in0.0 mm
04:35 AM 16.7°F-8.5°C 11.6°F-11.3°C 80% Calm Calm 1.0 mph1.6 kmh 29.67 in1004.7 mb 0.00 in0.0 mm 0.00 in0.0 mm 0.00 in0.0 mm
04:40 AM 16.5°F-8.6°C 11.4°F-11.4°C 80% Calm Calm 1.0 mph1.6 kmh 29.66 in1004.4 mb 0.00 in0.0 mm 0.00 in0.0 mm 0.00 in0.0 mm
04:45 AM 16.3°F-8.7°C 11.2°F-11.6°C 80% Calm Calm 1.0 mph1.6 kmh 29.67 in1004.7 mb 0.00 in0.0 mm 0.00 in0.0 mm 0.00 in0.0 mm
04:50 AM 16.1°F-8.8°C 11.0°F-11.7°C 80% Calm Calm 1.0 mph1.6 kmh 29.67 in1004.7 mb 0.00 in0.0 mm 0.00 in0.0 mm 0.00 in0.0 mm
04:55 AM 15.9°F-8.9°C 10.8°F-11.8°C 80% Calm Calm 1.0 mph1.6 kmh 29.67 in1004.7 mb 0.00 in0.0 mm 0.00 in0.0 mm 0.00 in0.0 mm
05:00 AM 15.7°F-9.1°C 10.6°F-11.9°C 80% Calm Calm 1.0 mph1.6 kmh 29.67 in1004.7 mb 0.00 in0.0 mm 0.00 in0.0 mm 0.00 in0.0 mm
05:05 AM 15.5°F-9.2°C 10.4°F-12.0°C 80% Calm Calm 3.0 mph4.8 kmh 29.67 in1004.7 mb 0.00 in0.0 mm 0.00 in0.0 mm 0.00 in0.0 mm
05:10 AM 15.3°F-9.3°C 10.2°F-12.1°C 80% 1.0 mph WSW1.6 kmh WSW 3.0 mph4.8 kmh 29.67 in1004.7 mb 0.00 in0.0 mm 0.00 in0.0 mm 0.00 in0.0 mm
05:15 AM 15.2°F-9.3°C 10.1°F-12.2°C 80% 1.0 mph SW1.6 kmh SW 3.0 mph4.8 kmh 29.67 in1004.7 mb 0.00 in0.0 mm 0.00 in0.0 mm 0.00 in0.0 mm
05:20 AM 15.0°F-9.4°C 9.9°F-12.3°C 80% Calm Calm 2.0 mph3.2 kmh 29.67 in1004.7 mb 0.00 in0.0 mm 0.00 in0.0 mm 0.00 in0.0 mm
05:25 AM 14.8°F-9.6°C 9.5°F-12.5°C 79% Calm Calm 2.0 mph3.2 kmh 29.67 in1004.7 mb 0.00 in0.0 mm 0.00 in0.0 mm 0.00 in0.0 mm
05:30 AM 14.6°F-9.7°C 9.6°F-12.4°C 80% Calm Calm 2.0 mph3.2 kmh 29.67 in1004.7 mb 0.00 in0.0 mm 0.00 in0.0 mm 0.00 in0.0 mm
05:35 AM 14.3°F-9.8°C 9.3°F-12.6°C 80% Calm Calm 2.0 mph3.2 kmh 29.67 in1004.7 mb 0.00 in0.0 mm 0.00 in0.0 mm 0.00 in0.0 mm
05:40 AM 14.2°F-9.9°C 9.2°F-12.7°C 80% Calm Calm 2.0 mph3.2 kmh 29.67 in1004.7 mb 0.00 in0.0 mm 0.00 in0.0 mm 0.00 in0.0 mm
05:45 AM 14.0°F-10.0°C 9.0°F-12.8°C 80% Calm Calm 2.0 mph3.2 kmh 29.67 in1004.7 mb 0.00 in0.0 mm 0.00 in0.0 mm 0.00 in0.0 mm
05:50 AM 13.7°F-10.2°C 8.7°F-12.9°C 80% Calm Calm 2.0 mph3.2 kmh 29.67 in1004.7 mb 0.00 in0.0 mm 0.00 in0.0 mm 0.00 in0.0 mm
05:55 AM 13.6°F-10.2°C 8.6°F-13.0°C 80% 1.0 mph SW1.6 kmh SW 3.0 mph4.8 kmh 29.67 in1004.7 mb 0.00 in0.0 mm 0.00 in0.0 mm 0.00 in0.0 mm
06:00 AM 13.4°F-10.3°C 8.4°F-13.1°C 80% Calm Calm 3.0 mph4.8 kmh 29.68 in1005.1 mb 0.00 in0.0 mm 0.00 in0.0 mm 0.00 in0.0 mm
06:05 AM 13.2°F-10.4°C 8.2°F-13.2°C 80% Calm Calm 3.0 mph4.8 kmh 29.68 in1005.1 mb 0.00 in0.0 mm 0.00 in0.0 mm 0.00 in0.0 mm
06:10 AM 13.0°F-10.6°C 8.0°F-13.3°C 80% Calm Calm 2.0 mph3.2 kmh 29.68 in1005.1 mb 0.00 in0.0 mm 0.00 in0.0 mm 0.00 in0.0 mm
06:15 AM 12.8°F-10.7°C 8.1°F-13.3°C 81% Calm Calm 2.0 mph3.2 kmh 29.68 in1005.1 mb 0.00 in0.0 mm 0.00 in0.0 mm 0.00 in0.0 mm
06:20 AM 12.6°F-10.8°C 7.9°F-13.4°C 81% Calm Calm 2.0 mph3.2 kmh 29.68 in1005.1 mb 0.00 in0.0 mm 0.00 in0.0 mm 0.00 in0.0 mm
06:25 AM 12.5°F-10.8°C 7.8°F-13.4°C 81% Calm Calm 2.0 mph3.2 kmh 29.68 in1005.1 mb 0.00 in0.0 mm 0.00 in0.0 mm 0.00 in0.0 mm
06:30 AM 12.3°F-10.9°C 7.6°F-13.6°C 81% Calm Calm 2.0 mph3.2 kmh 29.67 in1004.7 mb 0.00 in0.0 mm 0.00 in0.0 mm 0.00 in0.0 mm
06:35 AM 12.0°F-11.1°C 7.3°F-13.7°C 81% Calm Calm 1.0 mph1.6 kmh 29.67 in1004.7 mb 0.00 in0.0 mm 0.00 in0.0 mm 0.00 in0.0 mm
06:40 AM 11.9°F-11.2°C 7.2°F-13.8°C 81% Calm Calm 1.0 mph1.6 kmh 29.67 in1004.7 mb 0.00 in0.0 mm 0.00 in0.0 mm 0.00 in0.0 mm
06:45 AM 11.7°F-11.3°C 7.3°F-13.7°C 82% Calm Calm 1.0 mph1.6 kmh 29.67 in1004.7 mb 0.00 in0.0 mm 0.00 in0.0 mm 0.00 in0.0 mm
06:50 AM 11.6°F-11.3°C 7.2°F-13.8°C 82% Calm Calm 1.0 mph1.6 kmh 29.67 in1004.7 mb 0.00 in0.0 mm 0.00 in0.0 mm 0.00 in0.0 mm
06:55 AM 11.5°F-11.4°C 7.1°F-13.8°C 82% Calm Calm 1.0 mph1.6 kmh 29.67 in1004.7 mb 0.00 in0.0 mm 0.00 in0.0 mm 0.00 in0.0 mm
07:00 AM 11.4°F-11.4°C 7.0°F-13.9°C 82% Calm Calm -- 29.67 in1004.7 mb 0.00 in0.0 mm 0.00 in0.0 mm 0.00 in0.0 mm
07:05 AM 11.3°F-11.5°C 6.9°F-13.9°C 82% Calm Calm -- 29.67 in1004.7 mb 0.00 in0.0 mm 0.00 in0.0 mm 0.00 in0.0 mm
07:10 AM 11.3°F-11.5°C 6.9°F-13.9°C 82% Calm Calm -- 29.67 in1004.7 mb 0.00 in0.0 mm 0.00 in0.0 mm 0.00 in0.0 mm
07:15 AM 11.2°F-11.6°C 6.8°F-14.0°C 82% Calm Calm -- 29.67 in1004.7 mb 0.00 in0.0 mm 0.00 in0.0 mm 0.00 in0.0 mm
07:20 AM 11.2°F-11.6°C 6.8°F-14.0°C 82% Calm Calm -- 29.67 in1004.7 mb 0.00 in0.0 mm 0.00 in0.0 mm 0.00 in0.0 mm
07:25 AM 11.2°F-11.6°C 6.8°F-14.0°C 82% Calm Calm -- 29.67 in1004.7 mb 0.00 in0.0 mm 0.00 in0.0 mm 0.00 in0.0 mm
07:30 AM 11.3°F-11.5°C 7.1°F-13.8°C 83% Calm Calm -- 29.67 in1004.7 mb 0.00 in0.0 mm 0.00 in0.0 mm 0.00 in0.0 mm
07:35 AM 11.5°F-11.4°C 7.3°F-13.7°C 83% Calm Calm -- 29.67 in1004.7 mb 0.00 in0.0 mm 0.00 in0.0 mm 0.00 in0.0 mm
07:40 AM 11.6°F-11.3°C 7.4°F-13.7°C 83% Calm Calm 1.0 mph1.6 kmh 29.67 in1004.7 mb 0.00 in0.0 mm 0.00 in0.0 mm 0.00 in0.0 mm
07:45 AM 11.8°F-11.2°C 7.6°F-13.6°C 83% Calm Calm 1.0 mph1.6 kmh 29.67 in1004.7 mb 0.00 in0.0 mm 0.00 in0.0 mm 0.00 in0.0 mm
07:50 AM 11.9°F-11.2°C 7.7°F-13.5°C 83% Calm Calm 1.0 mph1.6 kmh 29.67 in1004.7 mb 0.00 in0.0 mm 0.00 in0.0 mm 0.00 in0.0 mm
07:55 AM 12.1°F-11.1°C 7.9°F-13.4°C 83% Calm Calm -- 29.67 in1004.7 mb 0.00 in0.0 mm 0.00 in0.0 mm 0.00 in0.0 mm
08:00 AM 12.2°F-11.0°C 8.3°F-13.2°C 84% Calm Calm -- 29.67 in1004.7 mb 0.00 in0.0 mm 0.00 in0.0 mm 0.00 in0.0 mm
08:05 AM 12.5°F-10.8°C 8.6°F-13.0°C 84% Calm Calm -- 29.67 in1004.7 mb 0.00 in0.0 mm 0.00 in0.0 mm 0.00 in0.0 mm
08:10 AM 12.8°F-10.7°C 8.9°F-12.8°C 84% Calm Calm -- 29.67 in1004.7 mb 0.00 in0.0 mm 0.00 in0.0 mm 0.00 in0.0 mm
08:15 AM 13.1°F-10.5°C 9.2°F-12.7°C 84% Calm Calm 1.0 mph1.6 kmh 29.66 in1004.4 mb 0.00 in0.0 mm 0.00 in0.0 mm 0.00 in0.0 mm
08:20 AM 13.5°F-10.3°C 9.6°F-12.4°C 84% Calm Calm 1.0 mph1.6 kmh 29.66 in1004.4 mb 0.00 in0.0 mm 0.00 in0.0 mm 0.00 in0.0 mm
08:25 AM 13.7°F-10.2°C 9.8°F-12.3°C 84% Calm Calm 1.0 mph1.6 kmh 29.66 in1004.4 mb 0.00 in0.0 mm 0.00 in0.0 mm 0.00 in0.0 mm
08:30 AM 14.2°F-9.9°C 10.5°F-11.9°C 85% Calm Calm 1.0 mph1.6 kmh 29.66 in1004.4 mb 0.00 in0.0 mm 0.00 in0.0 mm 0.00 in0.0 mm
08:35 AM 14.7°F-9.6°C 10.7°F-11.8°C 84% Calm Calm 1.0 mph1.6 kmh 29.65 in1004.1 mb 0.00 in0.0 mm 0.00 in0.0 mm 0.00 in0.0 mm
08:40 AM 15.2°F-9.3°C 11.0°F-11.7°C 83% Calm Calm -- 29.66 in1004.4 mb 0.00 in0.0 mm 0.00 in0.0 mm 0.00 in0.0 mm
08:45 AM 15.7°F-9.1°C 11.5°F-11.4°C 83% Calm Calm -- 29.65 in1004.1 mb 0.00 in0.0 mm 0.00 in0.0 mm 0.00 in0.0 mm
08:50 AM 16.4°F-8.7°C 11.9°F-11.2°C 82% Calm Calm -- 29.65 in1004.1 mb 0.00 in0.0 mm 0.00 in0.0 mm 0.00 in0.0 mm
08:55 AM 17.0°F-8.3°C 12.2°F-11.0°C 81% Calm Calm 1.0 mph1.6 kmh 29.65 in1004.1 mb 0.00 in0.0 mm 0.00 in0.0 mm 0.00 in0.0 mm
09:00 AM 17.6°F-8.0°C 12.5°F-10.8°C 80% Calm Calm 1.0 mph1.6 kmh 29.65 in1004.1 mb 0.00 in0.0 mm 0.00 in0.0 mm 0.00 in0.0 mm
09:05 AM 18.1°F-7.7°C 12.7°F-10.7°C 79% Calm Calm 2.0 mph3.2 kmh 29.65 in1004.1 mb 0.00 in0.0 mm 0.00 in0.0 mm 0.00 in0.0 mm
09:10 AM 18.6°F-7.4°C 12.9°F-10.6°C 78% Calm Calm 2.0 mph3.2 kmh 29.65 in1004.1 mb 0.00 in0.0 mm 0.00 in0.0 mm 0.00 in0.0 mm
09:15 AM 19.3°F-7.1°C 13.3°F-10.4°C 77% Calm Calm 1.0 mph1.6 kmh 29.65 in1004.1 mb 0.00 in0.0 mm 0.00 in0.0 mm 0.00 in0.0 mm
09:20 AM 19.7°F-6.8°C 13.4°F-10.3°C 76% Calm Calm 1.0 mph1.6 kmh 29.64 in1003.7 mb 0.00 in0.0 mm 0.00 in0.0 mm 0.00 in0.0 mm
09:25 AM 20.4°F-6.4°C 13.4°F-10.3°C 74% Calm Calm 2.0 mph3.2 kmh 29.64 in1003.7 mb 0.00 in0.0 mm 0.00 in0.0 mm 0.00 in0.0 mm
09:30 AM 21.0°F-6.1°C 13.7°F-10.2°C 73% Calm Calm 2.0 mph3.2 kmh 29.64 in1003.7 mb 0.00 in0.0 mm 0.00 in0.0 mm 0.00 in0.0 mm
09:35 AM 21.5°F-5.8°C 13.9°F-10.1°C 72% Calm Calm 2.0 mph3.2 kmh 29.64 in1003.7 mb 0.00 in0.0 mm 0.00 in0.0 mm 0.00 in0.0 mm
09:40 AM 22.0°F-5.6°C 14.3°F-9.8°C 72% Calm Calm 1.0 mph1.6 kmh 29.63 in1003.4 mb 0.00 in0.0 mm 0.00 in0.0 mm 0.00 in0.0 mm
09:45 AM 22.5°F-5.3°C 14.5°F-9.7°C 71% Calm Calm 1.0 mph1.6 kmh 29.63 in1003.4 mb 0.00 in0.0 mm 0.00 in0.0 mm 0.00 in0.0 mm
09:50 AM 23.2°F-4.9°C 14.9°F-9.5°C 70% Calm Calm 1.0 mph1.6 kmh 29.63 in1003.4 mb 0.00 in0.0 mm 0.00 in0.0 mm 0.00 in0.0 mm
09:55 AM 24.1°F-4.4°C 14.7°F-9.6°C 67% Calm Calm -- 29.63 in1003.4 mb 0.00 in0.0 mm 0.00 in0.0 mm 0.00 in0.0 mm
10:00 AM 25.3°F-3.7°C 15.2°F-9.3°C 65% Calm Calm 2.0 mph3.2 kmh 29.63 in1003.4 mb 0.00 in0.0 mm 0.00 in0.0 mm 0.00 in0.0 mm
10:05 AM 26.1°F-3.3°C 15.6°F-9.1°C 64% Calm Calm 2.0 mph3.2 kmh 29.62 in1003.0 mb 0.00 in0.0 mm 0.00 in0.0 mm 0.00 in0.0 mm
10:10 AM 26.7°F-2.9°C 16.1°F-8.8°C 64% Calm Calm 1.0 mph1.6 kmh 29.62 in1003.0 mb 0.00 in0.0 mm 0.00 in0.0 mm 0.00 in0.0 mm
10:15 AM 27.2°F-2.7°C 15.9°F-8.9°C 62% Calm Calm 1.0 mph1.6 kmh 29.62 in1003.0 mb 0.00 in0.0 mm 0.00 in0.0 mm 0.00 in0.0 mm
10:20 AM 27.5°F-2.5°C 16.2°F-8.8°C 62% Calm Calm 2.0 mph3.2 kmh 29.62 in1003.0 mb 0.00 in0.0 mm 0.00 in0.0 mm 0.00 in0.0 mm
10:25 AM 27.8°F-2.3°C 16.5°F-8.6°C 62% Calm Calm 2.0 mph3.2 kmh 29.62 in1003.0 mb 0.00 in0.0 mm 0.00 in0.0 mm 0.00 in0.0 mm
10:30 AM 28.2°F-2.1°C 16.1°F-8.8°C 60% Calm Calm 2.0 mph3.2 kmh 29.61 in1002.7 mb 0.00 in0.0 mm 0.00 in0.0 mm 0.00 in0.0 mm
10:35 AM 28.9°F-1.7°C 17.1°F-8.3°C 61% Calm Calm 2.0 mph3.2 kmh 29.61 in1002.7 mb 0.00 in0.0 mm 0.00 in0.0 mm 0.00 in0.0 mm
10:40 AM 29.8°F-1.2°C 16.8°F-8.4°C 58% Calm Calm 2.0 mph3.2 kmh 29.61 in1002.7 mb 0.00 in0.0 mm 0.00 in0.0 mm 0.00 in0.0 mm
10:45 AM 30.8°F-0.7°C 16.5°F-8.6°C 55% Calm Calm 3.0 mph4.8 kmh 29.61 in1002.7 mb 0.00 in0.0 mm 0.00 in0.0 mm 0.00 in0.0 mm
10:50 AM 31.7°F-0.2°C 16.5°F-8.6°C 53% 1.0 mph NNE1.6 kmh NNE 4.0 mph6.4 kmh 29.60 in1002.4 mb 0.00 in0.0 mm 0.00 in0.0 mm 0.00 in0.0 mm
10:55 AM 32.4°F0.2°C 18.0°F-7.8°C 55% 1.0 mph NNE1.6 kmh NNE 4.0 mph6.4 kmh 29.60 in1002.4 mb 0.00 in0.0 mm 0.00 in0.0 mm 0.00 in0.0 mm
11:00 AM 33.1°F0.6°C 17.8°F-7.9°C 53% 1.0 mph NE1.6 kmh NE 3.0 mph4.8 kmh 29.60 in1002.4 mb 0.00 in0.0 mm 0.00 in0.0 mm 0.00 in0.0 mm
11:05 AM 34.1°F1.2°C 18.3°F-7.6°C 52% 1.0 mph NE1.6 kmh NE 3.0 mph4.8 kmh 29.59 in1002.0 mb 0.00 in0.0 mm 0.00 in0.0 mm 0.00 in0.0 mm
11:10 AM 34.4°F1.3°C 19.0°F-7.2°C 53% 1.0 mph NE1.6 kmh NE 5.0 mph8.0 kmh 29.59 in1002.0 mb 0.00 in0.0 mm 0.00 in0.0 mm 0.00 in0.0 mm
11:15 AM 35.0°F1.7°C 19.1°F-7.2°C 52% 1.0 mph NE1.6 kmh NE 5.0 mph8.0 kmh 29.59 in1002.0 mb 0.00 in0.0 mm 0.00 in0.0 mm 0.00 in0.0 mm
11:20 AM 35.4°F1.9°C 19.5°F-6.9°C 52% Calm Calm 3.0 mph4.8 kmh 29.59 in1002.0 mb 0.00 in0.0 mm 0.00 in0.0 mm 0.00 in0.0 mm
11:25 AM 35.9°F2.2°C 17.1°F-8.3°C 46% Calm Calm 2.0 mph3.2 kmh 29.58 in1001.7 mb 0.00 in0.0 mm 0.00 in0.0 mm 0.00 in0.0 mm
11:30 AM 36.6°F2.6°C 19.2°F-7.1°C 49% Calm Calm 3.0 mph4.8 kmh 29.58 in1001.7 mb 0.00 in0.0 mm 0.00 in0.0 mm 0.00 in0.0 mm
11:35 AM 37.3°F2.9°C 19.9°F-6.7°C 49% Calm Calm 3.0 mph4.8 kmh 29.57 in1001.4 mb 0.00 in0.0 mm 0.00 in0.0 mm 0.00 in0.0 mm
11:40 AM 38.1°F3.4°C 21.1°F-6.1°C 50% Calm Calm 4.0 mph6.4 kmh 29.57 in1001.4 mb 0.00 in0.0 mm 0.00 in0.0 mm 0.00 in0.0 mm
11:45 AM 39.2°F4.0°C 20.6°F-6.3°C 47% Calm Calm 4.0 mph6.4 kmh 29.57 in1001.4 mb 0.00 in0.0 mm 0.00 in0.0 mm 0.00 in0.0 mm
11:50 AM 40.4°F4.7°C 21.2°F-6.0°C 46% 1.0 mph NNE1.6 kmh NNE 3.0 mph4.8 kmh 29.57 in1001.4 mb 0.00 in0.0 mm 0.00 in0.0 mm 0.00 in0.0 mm
11:55 AM 41.8°F5.4°C 20.9°F-6.2°C 43% 1.0 mph N1.6 kmh N 3.0 mph4.8 kmh 29.56 in1001.0 mb 0.00 in0.0 mm 0.00 in0.0 mm 0.00 in0.0 mm
12:00 PM 42.8°F6.0°C 21.8°F-5.7°C 43% 1.0 mph N1.6 kmh N 4.0 mph6.4 kmh 29.56 in1001.0 mb 0.00 in0.0 mm 0.00 in0.0 mm 0.00 in0.0 mm
12:05 PM 43.3°F6.3°C 20.6°F-6.3°C 40% 1.0 mph NE1.6 kmh NE 4.0 mph6.4 kmh 29.55 in1000.7 mb 0.00 in0.0 mm 0.00 in0.0 mm 0.00 in0.0 mm
12:10 PM 43.3°F6.3°C 21.7°F-5.7°C 42% 1.0 mph NE1.6 kmh NE 4.0 mph6.4 kmh 29.55 in1000.7 mb 0.00 in0.0 mm 0.00 in0.0 mm 0.00 in0.0 mm
12:15 PM 43.1°F6.2°C 21.0°F-6.1°C 41% 1.0 mph ENE1.6 kmh ENE 4.0 mph6.4 kmh 29.55 in1000.7 mb 0.00 in0.0 mm 0.00 in0.0 mm 0.00 in0.0 mm
12:20 PM 42.8°F6.0°C 20.1°F-6.6°C 40% 1.0 mph E1.6 kmh E 5.0 mph8.0 kmh 29.55 in1000.7 mb 0.00 in0.0 mm 0.00 in0.0 mm 0.00 in0.0 mm
12:25 PM 42.6°F5.9°C 22.7°F-5.2°C 45% 1.0 mph E1.6 kmh E 7.0 mph11.3 kmh 29.55 in1000.7 mb 0.00 in0.0 mm 0.00 in0.0 mm 0.00 in0.0 mm
12:30 PM 42.4°F5.8°C 20.3°F-6.5°C 41% 2.0 mph E3.2 kmh E 7.0 mph11.3 kmh 29.54 in1000.3 mb 0.00 in0.0 mm 0.00 in0.0 mm 0.00 in0.0 mm
12:35 PM 42.4°F5.8°C 20.9°F-6.2°C 42% 2.0 mph E3.2 kmh E 5.0 mph8.0 kmh 29.54 in1000.3 mb 0.00 in0.0 mm 0.00 in0.0 mm 0.00 in0.0 mm
12:40 PM 42.6°F5.9°C 21.6°F-5.8°C 43% 1.0 mph E1.6 kmh E 5.0 mph8.0 kmh 29.54 in1000.3 mb 0.00 in0.0 mm 0.00 in0.0 mm 0.00 in0.0 mm
12:45 PM 43.0°F6.1°C 22.0°F-5.6°C 43% 1.0 mph NE1.6 kmh NE 3.0 mph4.8 kmh 29.54 in1000.3 mb 0.00 in0.0 mm 0.00 in0.0 mm 0.00 in0.0 mm
12:50 PM 43.3°F6.3°C 22.8°F-5.1°C 44% 1.0 mph NE1.6 kmh NE 4.0 mph6.4 kmh 29.54 in1000.3 mb 0.00 in0.0 mm 0.00 in0.0 mm 0.00 in0.0 mm
12:55 PM 43.0°F6.1°C 20.9°F-6.2°C 41% 1.0 mph ENE1.6 kmh ENE 4.0 mph6.4 kmh 29.54 in1000.3 mb 0.00 in0.0 mm 0.00 in0.0 mm 0.00 in0.0 mm
01:00 PM 42.9°F6.1°C 22.5°F-5.3°C 44% 2.0 mph NE3.2 kmh NE 5.0 mph8.0 kmh 29.53 in1000.0 mb 0.00 in0.0 mm 0.00 in0.0 mm 0.00 in0.0 mm
01:05 PM 42.6°F5.9°C 21.6°F-5.8°C 43% 1.0 mph NE1.6 kmh NE 5.0 mph8.0 kmh 29.53 in1000.0 mb 0.00 in0.0 mm 0.00 in0.0 mm 0.00 in0.0 mm
01:10 PM 42.5°F5.8°C 23.2°F-4.9°C 46% Calm Calm 2.0 mph3.2 kmh 29.53 in1000.0 mb 0.00 in0.0 mm 0.00 in0.0 mm 0.00 in0.0 mm
01:15 PM 42.3°F5.7°C 21.9°F-5.6°C 44% 1.0 mph ENE1.6 kmh ENE 3.0 mph4.8 kmh 29.53 in1000.0 mb 0.01 in0.3 mm 0.12 in3.0 mm 0.01 in0.3 mm
01:20 PM 42.4°F5.8°C 20.9°F-6.2°C 42% 1.0 mph ENE1.6 kmh ENE 6.0 mph9.7 kmh 29.53 in1000.0 mb 0.01 in0.3 mm 0.00 in0.0 mm 0.01 in0.3 mm
01:25 PM 42.6°F5.9°C 21.6°F-5.8°C 43% 2.0 mph NE3.2 kmh NE 6.0 mph9.7 kmh 29.52 in999.7 mb 0.01 in0.3 mm 0.00 in0.0 mm 0.01 in0.3 mm
01:30 PM 42.8°F6.0°C 22.9°F-5.1°C 45% 2.0 mph NE3.2 kmh NE 6.0 mph9.7 kmh 29.52 in999.7 mb 0.01 in0.3 mm 0.00 in0.0 mm 0.01 in0.3 mm
01:35 PM 42.9°F6.1°C 21.4°F-5.9°C 42% 1.0 mph NE1.6 kmh NE 4.0 mph6.4 kmh 29.52 in999.7 mb 0.01 in0.3 mm 0.00 in0.0 mm 0.01 in0.3 mm
01:40 PM 42.9°F6.1°C 23.0°F-5.0°C 45% 1.0 mph NE1.6 kmh NE 4.0 mph6.4 kmh 29.52 in999.7 mb 0.01 in0.3 mm 0.00 in0.0 mm 0.01 in0.3 mm
01:45 PM 43.0°F6.1°C 22.5°F-5.3°C 44% 1.0 mph NE1.6 kmh NE 4.0 mph6.4 kmh 29.51 in999.3 mb 0.01 in0.3 mm 0.00 in0.0 mm 0.01 in0.3 mm
01:50 PM 43.1°F6.2°C 19.2°F-7.1°C 38% 1.0 mph NE1.6 kmh NE 4.0 mph6.4 kmh 29.51 in999.3 mb 0.01 in0.3 mm 0.00 in0.0 mm 0.01 in0.3 mm
01:55 PM 43.4°F6.3°C 21.8°F-5.7°C 42% 1.0 mph N1.6 kmh N 4.0 mph6.4 kmh 29.51 in999.3 mb 0.01 in0.3 mm 0.00 in0.0 mm 0.01 in0.3 mm
02:00 PM 43.6°F6.4°C 22.0°F-5.6°C 42% 1.0 mph NNE1.6 kmh NNE 4.0 mph6.4 kmh 29.51 in999.3 mb 0.01 in0.3 mm 0.00 in0.0 mm 0.01 in0.3 mm
02:05 PM 43.7°F6.5°C 23.7°F-4.6°C 45% 1.0 mph NE1.6 kmh NE 4.0 mph6.4 kmh 29.50 in999.0 mb 0.01 in0.3 mm 0.00 in0.0 mm 0.01 in0.3 mm
02:10 PM 43.8°F6.6°C 24.3°F-4.3°C 46% 1.0 mph NE1.6 kmh NE 5.0 mph8.0 kmh 29.50 in999.0 mb 0.01 in0.3 mm 0.00 in0.0 mm 0.01 in0.3 mm
02:15 PM 43.8°F6.6°C 22.2°F-5.4°C 42% 2.0 mph NE3.2 kmh NE 5.0 mph8.0 kmh 29.50 in999.0 mb 0.00 in0.0 mm 0.00 in0.0 mm 0.01 in0.3 mm
02:20 PM 43.7°F6.5°C 22.1°F-5.5°C 42% 2.0 mph ENE3.2 kmh ENE 5.0 mph8.0 kmh 29.49 in998.6 mb 0.00 in0.0 mm 0.00 in0.0 mm 0.01 in0.3 mm
02:25 PM 43.7°F6.5°C 21.5°F-5.8°C 41% 1.0 mph ENE1.6 kmh ENE 5.0 mph8.0 kmh 29.49 in998.6 mb 0.00 in0.0 mm 0.00 in0.0 mm 0.01 in0.3 mm
02:30 PM 44.0°F6.7°C 20.0°F-6.7°C 38% 2.0 mph NE3.2 kmh NE 5.0 mph8.0 kmh 29.49 in998.6 mb 0.00 in0.0 mm 0.00 in0.0 mm 0.01 in0.3 mm
02:35 PM 44.5°F6.9°C 25.0°F-3.9°C 46% 2.0 mph NE3.2 kmh NE 5.0 mph8.0 kmh 29.49 in998.6 mb 0.00 in0.0 mm 0.00 in0.0 mm 0.01 in0.3 mm
02:40 PM 44.9°F7.2°C 19.5°F-6.9°C 36% 1.0 mph ENE1.6 kmh ENE 5.0 mph8.0 kmh 29.48 in998.3 mb 0.00 in0.0 mm 0.00 in0.0 mm 0.01 in0.3 mm
02:45 PM 45.2°F7.3°C 21.1°F-6.1°C 38% 1.0 mph ENE1.6 kmh ENE 3.0 mph4.8 kmh 29.48 in998.3 mb 0.00 in0.0 mm 0.00 in0.0 mm 0.01 in0.3 mm
02:50 PM 45.4°F7.4°C 23.6°F-4.7°C 42% 2.0 mph ENE3.2 kmh ENE 5.0 mph8.0 kmh 29.48 in998.3 mb 0.00 in0.0 mm 0.00 in0.0 mm 0.01 in0.3 mm
02:55 PM 45.4°F7.4°C 23.0°F-5.0°C 41% 2.0 mph E3.2 kmh E 5.0 mph8.0 kmh 29.47 in998.0 mb 0.00 in0.0 mm 0.00 in0.0 mm 0.01 in0.3 mm
03:00 PM 45.3°F7.4°C 21.8°F-5.7°C 39% 1.0 mph ENE1.6 kmh ENE 5.0 mph8.0 kmh 29.47 in998.0 mb 0.00 in0.0 mm 0.00 in0.0 mm 0.01 in0.3 mm
03:05 PM 45.2°F7.3°C 24.6°F-4.1°C 44% 1.0 mph ENE1.6 kmh ENE 5.0 mph8.0 kmh 29.47 in998.0 mb 0.00 in0.0 mm 0.00 in0.0 mm 0.01 in0.3 mm
03:10 PM 45.0°F7.2°C 23.3°F-4.8°C 42% 1.0 mph ENE1.6 kmh ENE 4.0 mph6.4 kmh 29.47 in998.0 mb 0.00 in0.0 mm 0.00 in0.0 mm 0.01 in0.3 mm
03:15 PM 45.1°F7.3°C 22.2°F-5.4°C 40% 1.0 mph ENE1.6 kmh ENE 4.0 mph6.4 kmh 29.46 in997.6 mb 0.00 in0.0 mm 0.00 in0.0 mm 0.01 in0.3 mm
03:20 PM 45.0°F7.2°C 22.7°F-5.2°C 41% 1.0 mph E1.6 kmh E 5.0 mph8.0 kmh 29.46 in997.6 mb 0.00 in0.0 mm 0.00 in0.0 mm 0.01 in0.3 mm
03:25 PM 45.1°F7.3°C 20.3°F-6.5°C 37% 2.0 mph E3.2 kmh E 5.0 mph8.0 kmh 29.46 in997.6 mb 0.00 in0.0 mm 0.00 in0.0 mm 0.01 in0.3 mm
03:30 PM 45.4°F7.4°C 22.5°F-5.3°C 40% 1.0 mph E1.6 kmh E 4.0 mph6.4 kmh 29.46 in997.6 mb 0.00 in0.0 mm 0.00 in0.0 mm 0.01 in0.3 mm
03:35 PM 45.4°F7.4°C 23.6°F-4.7°C 42% 2.0 mph ENE3.2 kmh ENE 6.0 mph9.7 kmh 29.45 in997.3 mb 0.00 in0.0 mm 0.00 in0.0 mm 0.01 in0.3 mm
03:40 PM 45.2°F7.3°C 23.4°F-4.8°C 42% 2.0 mph E3.2 kmh E 6.0 mph9.7 kmh 29.45 in997.3 mb 0.00 in0.0 mm 0.00 in0.0 mm 0.01 in0.3 mm
03:45 PM 45.1°F7.3°C 23.9°F-4.5°C 43% 2.0 mph E3.2 kmh E 6.0 mph9.7 kmh 29.45 in997.3 mb 0.00 in0.0 mm 0.00 in0.0 mm 0.01 in0.3 mm
03:50 PM 45.0°F7.2°C 24.4°F-4.2°C 44% 2.0 mph ENE3.2 kmh ENE 6.0 mph9.7 kmh 29.45 in997.3 mb 0.00 in0.0 mm 0.00 in0.0 mm 0.01 in0.3 mm
03:55 PM 44.8°F7.1°C 24.2°F-4.3°C 44% 1.0 mph ENE1.6 kmh ENE 5.0 mph8.0 kmh 29.44 in997.0 mb 0.00 in0.0 mm 0.00 in0.0 mm 0.01 in0.3 mm
04:00 PM 44.9°F7.2°C 22.6°F-5.2°C 41% 1.0 mph ENE1.6 kmh ENE 5.0 mph8.0 kmh 29.44 in997.0 mb 0.01 in0.3 mm 0.01 in0.3 mm 0.02 in0.5 mm
04:05 PM 45.0°F7.2°C 22.7°F-5.2°C 41% 2.0 mph ENE3.2 kmh ENE 5.0 mph8.0 kmh 29.44 in997.0 mb 0.01 in0.3 mm 0.00 in0.0 mm 0.02 in0.5 mm
04:10 PM 45.0°F7.2°C 23.3°F-4.8°C 42% 1.0 mph E1.6 kmh E 4.0 mph6.4 kmh 29.44 in997.0 mb 0.01 in0.3 mm 0.00 in0.0 mm 0.02 in0.5 mm
04:15 PM 45.1°F7.3°C 24.5°F-4.2°C 44% 1.0 mph E1.6 kmh E 3.0 mph4.8 kmh 29.43 in996.6 mb 0.01 in0.3 mm 0.00 in0.0 mm 0.02 in0.5 mm
04:20 PM 45.0°F7.2°C 23.8°F-4.6°C 43% 1.0 mph E1.6 kmh E 3.0 mph4.8 kmh 29.43 in996.6 mb 0.01 in0.3 mm 0.00 in0.0 mm 0.02 in0.5 mm
04:25 PM 45.0°F7.2°C 22.1°F-5.5°C 40% 1.0 mph E1.6 kmh E 3.0 mph4.8 kmh 29.43 in996.6 mb 0.01 in0.3 mm 0.00 in0.0 mm 0.02 in0.5 mm
04:30 PM 45.0°F7.2°C 22.7°F-5.2°C 41% 1.0 mph E1.6 kmh E 3.0 mph4.8 kmh 29.43 in996.6 mb 0.01 in0.3 mm 0.00 in0.0 mm 0.02 in0.5 mm
04:35 PM 45.1°F7.3°C 22.2°F-5.4°C 40% 1.0 mph E1.6 kmh E 3.0 mph4.8 kmh 29.43 in996.6 mb 0.01 in0.3 mm 0.00 in0.0 mm 0.02 in0.5 mm
04:40 PM 45.1°F7.3°C 22.8°F-5.1°C 41% Calm Calm 3.0 mph4.8 kmh 29.42 in996.3 mb 0.01 in0.3 mm 0.00 in0.0 mm 0.02 in0.5 mm
04:45 PM 45.1°F7.3°C 23.3°F-4.8°C 42% Calm Calm 2.0 mph3.2 kmh 29.42 in996.3 mb 0.01 in0.3 mm 0.00 in0.0 mm 0.02 in0.5 mm
04:50 PM 45.1°F7.3°C 22.8°F-5.1°C 41% Calm Calm 2.0 mph3.2 kmh 29.42 in996.3 mb 0.01 in0.3 mm 0.00 in0.0 mm 0.02 in0.5 mm
04:55 PM 45.1°F7.3°C 23.3°F-4.8°C 42% Calm Calm 3.0 mph4.8 kmh 29.42 in996.3 mb 0.01 in0.3 mm 0.00 in0.0 mm 0.02 in0.5 mm
05:00 PM 45.0°F7.2°C 21.5°F-5.8°C 39% 1.0 mph SE1.6 kmh SE 3.0 mph4.8 kmh 29.42 in996.3 mb 0.00 in0.0 mm 0.00 in0.0 mm 0.02 in0.5 mm
05:05 PM 45.0°F7.2°C 21.5°F-5.8°C 39% 1.0 mph SSW1.6 kmh SSW 2.0 mph3.2 kmh 29.41 in995.9 mb 0.00 in0.0 mm 0.00 in0.0 mm 0.02 in0.5 mm
05:10 PM 45.2°F7.3°C 22.9°F-5.1°C 41% Calm Calm 2.0 mph3.2 kmh 29.41 in995.9 mb 0.00 in0.0 mm 0.00 in0.0 mm 0.02 in0.5 mm
05:15 PM 45.5°F7.5°C 21.3°F-5.9°C 38% Calm Calm 3.0 mph4.8 kmh 29.41 in995.9 mb 0.00 in0.0 mm 0.00 in0.0 mm 0.02 in0.5 mm
05:20 PM 45.8°F7.7°C 21.6°F-5.8°C 38% Calm Calm 3.0 mph4.8 kmh 29.41 in995.9 mb 0.00 in0.0 mm 0.00 in0.0 mm 0.02 in0.5 mm
05:25 PM 46.0°F7.8°C 21.1°F-6.1°C 37% Calm Calm 3.0 mph4.8 kmh 29.41 in995.9 mb 0.00 in0.0 mm 0.00 in0.0 mm 0.02 in0.5 mm
05:30 PM 46.3°F7.9°C 20.8°F-6.2°C 36% Calm Calm 2.0 mph3.2 kmh 29.41 in995.9 mb 0.00 in0.0 mm 0.00 in0.0 mm 0.02 in0.5 mm
05:35 PM 46.3°F7.9°C 21.4°F-5.9°C 37% Calm Calm 2.0 mph3.2 kmh 29.40 in995.6 mb 0.00 in0.0 mm 0.00 in0.0 mm 0.02 in0.5 mm
05:40 PM 46.0°F7.8°C 20.5°F-6.4°C 36% Calm Calm 1.0 mph1.6 kmh 29.40 in995.6 mb 0.00 in0.0 mm 0.00 in0.0 mm 0.02 in0.5 mm
05:45 PM 45.6°F7.6°C 21.4°F-5.9°C 38% Calm Calm 1.0 mph1.6 kmh 29.40 in995.6 mb 0.00 in0.0 mm 0.00 in0.0 mm 0.02 in0.5 mm
05:50 PM 45.3°F7.4°C 21.2°F-6.0°C 38% Calm Calm 2.0 mph3.2 kmh 29.40 in995.6 mb 0.00 in0.0 mm 0.00 in0.0 mm 0.02 in0.5 mm
05:55 PM 45.2°F7.3°C 24.0°F-4.4°C 43% Calm Calm 2.0 mph3.2 kmh 29.39 in995.3 mb 0.00 in0.0 mm 0.00 in0.0 mm 0.02 in0.5 mm
06:00 PM 44.8°F7.1°C 23.6°F-4.7°C 43% Calm Calm 3.0 mph4.8 kmh 29.39 in995.3 mb 0.00 in0.0 mm 0.00 in0.0 mm 0.02 in0.5 mm
06:05 PM 44.4°F6.9°C 23.3°F-4.8°C 43% 1.0 mph SSW1.6 kmh SSW 4.0 mph6.4 kmh 29.40 in995.6 mb 0.00 in0.0 mm 0.00 in0.0 mm 0.02 in0.5 mm
06:10 PM 44.2°F6.8°C 21.4°F-5.9°C 40% 2.0 mph SW3.2 kmh SW 6.0 mph9.7 kmh 29.39 in995.3 mb 0.00 in0.0 mm 0.00 in0.0 mm 0.02 in0.5 mm
06:15 PM 44.2°F6.8°C 22.0°F-5.6°C 41% 2.0 mph SW3.2 kmh SW 6.0 mph9.7 kmh 29.39 in995.3 mb 0.00 in0.0 mm 0.00 in0.0 mm 0.02 in0.5 mm
06:20 PM 44.1°F6.7°C 21.9°F-5.6°C 41% 2.0 mph SSW3.2 kmh SSW 4.0 mph6.4 kmh 29.39 in995.3 mb 0.00 in0.0 mm 0.00 in0.0 mm 0.02 in0.5 mm
06:25 PM 43.8°F6.6°C 21.6°F-5.8°C 41% 1.0 mph SSW1.6 kmh SSW 4.0 mph6.4 kmh 29.39 in995.3 mb 0.00 in0.0 mm 0.00 in0.0 mm 0.02 in0.5 mm
06:30 PM 43.6°F6.4°C 22.5°F-5.3°C 43% 2.0 mph S3.2 kmh S 4.0 mph6.4 kmh 29.39 in995.3 mb 0.00 in0.0 mm 0.00 in0.0 mm 0.02 in0.5 mm
06:35 PM 43.3°F6.3°C 22.8°F-5.1°C 44% 1.0 mph S1.6 kmh S 4.0 mph6.4 kmh 29.39 in995.3 mb 0.00 in0.0 mm 0.00 in0.0 mm 0.02 in0.5 mm
06:40 PM 43.0°F6.1°C 22.0°F-5.6°C 43% 1.0 mph S1.6 kmh S 3.0 mph4.8 kmh 29.39 in995.3 mb 0.00 in0.0 mm 0.00 in0.0 mm 0.02 in0.5 mm
06:45 PM 42.3°F5.7°C 24.0°F-4.4°C 48% Calm Calm 4.0 mph6.4 kmh 29.39 in995.3 mb 0.00 in0.0 mm 0.00 in0.0 mm 0.02 in0.5 mm
06:50 PM 41.6°F5.3°C 22.8°F-5.1°C 47% Calm Calm 4.0 mph6.4 kmh 29.39 in995.3 mb 0.00 in0.0 mm 0.00 in0.0 mm 0.02 in0.5 mm
06:55 PM 40.8°F4.9°C 23.1°F-4.9°C 49% 1.0 mph S1.6 kmh S 3.0 mph4.8 kmh 29.38 in994.9 mb 0.00 in0.0 mm 0.00 in0.0 mm 0.02 in0.5 mm
07:00 PM 40.0°F4.4°C 22.4°F-5.3°C 49% 1.0 mph S1.6 kmh S 3.0 mph4.8 kmh 29.38 in994.9 mb 0.00 in0.0 mm 0.00 in0.0 mm 0.02 in0.5 mm
07:05 PM 39.3°F4.1°C 22.7°F-5.2°C 51% Calm Calm 3.0 mph4.8 kmh 29.38 in994.9 mb 0.00 in0.0 mm 0.00 in0.0 mm 0.02 in0.5 mm
07:10 PM 38.7°F3.7°C 24.3°F-4.3°C 56% 1.0 mph SSE1.6 kmh SSE 5.0 mph8.0 kmh 29.38 in994.9 mb 0.00 in0.0 mm 0.00 in0.0 mm 0.02 in0.5 mm
07:15 PM 37.9°F3.3°C 23.6°F-4.7°C 56% Calm Calm 5.0 mph8.0 kmh 29.38 in994.9 mb 0.00 in0.0 mm 0.00 in0.0 mm 0.02 in0.5 mm
07:20 PM 37.3°F2.9°C 23.4°F-4.8°C 57% 1.0 mph SE1.6 kmh SE 4.0 mph6.4 kmh 29.38 in994.9 mb 0.00 in0.0 mm 0.00 in0.0 mm 0.02 in0.5 mm
07:25 PM 36.6°F2.6°C 23.2°F-4.9°C 58% 1.0 mph SE1.6 kmh SE 4.0 mph6.4 kmh 29.38 in994.9 mb 0.00 in0.0 mm 0.00 in0.0 mm 0.02 in0.5 mm
07:30 PM 36.0°F2.2°C 22.2°F-5.4°C 57% 1.0 mph SE1.6 kmh SE 3.0 mph4.8 kmh 29.37 in994.6 mb 0.00 in0.0 mm 0.00 in0.0 mm 0.02 in0.5 mm
07:35 PM 35.5°F1.9°C 23.8°F-4.6°C 62% 1.0 mph SE1.6 kmh SE 3.0 mph4.8 kmh 29.37 in994.6 mb 0.00 in0.0 mm 0.00 in0.0 mm 0.02 in0.5 mm
07:40 PM 35.0°F1.7°C 24.8°F-4.0°C 66% 1.0 mph SE1.6 kmh SE 3.0 mph4.8 kmh 29.37 in994.6 mb 0.00 in0.0 mm 0.00 in0.0 mm 0.02 in0.5 mm
07:45 PM 34.4°F1.3°C 23.8°F-4.6°C 65% 1.0 mph SE1.6 kmh SE 5.0 mph8.0 kmh 29.37 in994.6 mb 0.00 in0.0 mm 0.00 in0.0 mm 0.02 in0.5 mm
07:50 PM 33.7°F0.9°C 24.3°F-4.3°C 68% 1.0 mph SE1.6 kmh SE 5.0 mph8.0 kmh 29.37 in994.6 mb 0.00 in0.0 mm 0.00 in0.0 mm 0.02 in0.5 mm
07:55 PM 33.0°F0.6°C 22.5°F-5.3°C 65% Calm Calm 2.0 mph3.2 kmh 29.37 in994.6 mb 0.00 in0.0 mm 0.00 in0.0 mm 0.02 in0.5 mm
08:00 PM 32.4°F0.2°C 23.7°F-4.6°C 70% Calm Calm 2.0 mph3.2 kmh 29.37 in994.6 mb 0.00 in0.0 mm 0.00 in0.0 mm 0.02 in0.5 mm
08:05 PM 31.9°F-0.1°C 23.2°F-4.9°C 70% Calm Calm 2.0 mph3.2 kmh 29.36 in994.2 mb 0.00 in0.0 mm 0.00 in0.0 mm 0.02 in0.5 mm
08:10 PM 31.3°F-0.4°C 22.6°F-5.2°C 70% Calm Calm 2.0 mph3.2 kmh 29.36 in994.2 mb 0.00 in0.0 mm 0.00 in0.0 mm 0.02 in0.5 mm
08:15 PM 30.8°F-0.7°C 22.2°F-5.4°C 70% 1.0 mph E1.6 kmh E 2.0 mph3.2 kmh 29.36 in994.2 mb 0.00 in0.0 mm 0.00 in0.0 mm 0.02 in0.5 mm
08:20 PM 30.2°F-1.0°C 22.3°F-5.4°C 72% 1.0 mph ENE1.6 kmh ENE 2.0 mph3.2 kmh 29.36 in994.2 mb 0.00 in0.0 mm 0.00 in0.0 mm 0.02 in0.5 mm
08:25 PM 29.7°F-1.3°C 21.4°F-5.9°C 71% 1.0 mph ENE1.6 kmh ENE 2.0 mph3.2 kmh 29.36 in994.2 mb 0.00 in0.0 mm 0.00 in0.0 mm 0.02 in0.5 mm
08:30 PM 29.3°F-1.5°C 20.7°F-6.3°C 70% 1.0 mph ENE1.6 kmh ENE 2.0 mph3.2 kmh 29.36 in994.2 mb 0.00 in0.0 mm 0.00 in0.0 mm 0.02 in0.5 mm
08:35 PM 29.0°F-1.7°C 20.4°F-6.4°C 70% Calm Calm 2.0 mph3.2 kmh 29.36 in994.2 mb 0.00 in0.0 mm 0.00 in0.0 mm 0.02 in0.5 mm
08:40 PM 28.8°F-1.8°C 21.2°F-6.0°C 73% Calm Calm 2.0 mph3.2 kmh 29.36 in994.2 mb 0.00 in0.0 mm 0.00 in0.0 mm 0.02 in0.5 mm
08:45 PM 28.4°F-2.0°C 21.2°F-6.0°C 74% Calm Calm 2.0 mph3.2 kmh 29.36 in994.2 mb 0.00 in0.0 mm 0.00 in0.0 mm 0.02 in0.5 mm
08:50 PM 28.0°F-2.2°C 20.1°F-6.6°C 72% 1.0 mph ENE1.6 kmh ENE 2.0 mph3.2 kmh 29.36 in994.2 mb 0.00 in0.0 mm 0.00 in0.0 mm 0.02 in0.5 mm
08:55 PM 27.7°F-2.4°C 20.5°F-6.4°C 74% 1.0 mph NE1.6 kmh NE 3.0 mph4.8 kmh 29.36 in994.2 mb 0.00 in0.0 mm 0.00 in0.0 mm 0.02 in0.5 mm
09:00 PM 27.4°F-2.6°C 19.9°F-6.7°C 73% 1.0 mph NNE1.6 kmh NNE 4.0 mph6.4 kmh 29.36 in994.2 mb 0.00 in0.0 mm 0.00 in0.0 mm 0.02 in0.5 mm
09:05 PM 27.0°F-2.8°C 19.8°F-6.8°C 74% 1.0 mph N1.6 kmh N 4.0 mph6.4 kmh 29.35 in993.9 mb 0.00 in0.0 mm 0.00 in0.0 mm 0.02 in0.5 mm
09:10 PM 26.8°F-2.9°C 20.2°F-6.6°C 76% Calm Calm 4.0 mph6.4 kmh 29.35 in993.9 mb 0.00 in0.0 mm 0.00 in0.0 mm 0.02 in0.5 mm
09:15 PM 26.6°F-3.0°C 20.1°F-6.6°C 76% 1.0 mph N1.6 kmh N 4.0 mph6.4 kmh 29.35 in993.9 mb 0.00 in0.0 mm 0.00 in0.0 mm 0.02 in0.5 mm
09:20 PM 26.4°F-3.1°C 19.9°F-6.7°C 76% 1.0 mph N1.6 kmh N 4.0 mph6.4 kmh 29.35 in993.9 mb 0.00 in0.0 mm 0.00 in0.0 mm 0.02 in0.5 mm
09:25 PM 26.2°F-3.2°C 19.7°F-6.8°C 76% 1.0 mph N1.6 kmh N 4.0 mph6.4 kmh 29.35 in993.9 mb 0.00 in0.0 mm 0.00 in0.0 mm 0.02 in0.5 mm
09:30 PM 26.0°F-3.3°C 19.8°F-6.8°C 77% Calm Calm 3.0 mph4.8 kmh 29.35 in993.9 mb 0.00 in0.0 mm 0.00 in0.0 mm 0.02 in0.5 mm
09:35 PM 25.8°F-3.4°C 19.9°F-6.7°C 78% 1.0 mph N1.6 kmh N 3.0 mph4.8 kmh 29.35 in993.9 mb 0.00 in0.0 mm 0.00 in0.0 mm 0.02 in0.5 mm
09:40 PM 25.5°F-3.6°C 19.3°F-7.1°C 77% 1.0 mph N1.6 kmh N 3.0 mph4.8 kmh 29.35 in993.9 mb 0.00 in0.0 mm 0.00 in0.0 mm 0.02 in0.5 mm
09:45 PM 25.2°F-3.8°C 18.7°F-7.4°C 76% 1.0 mph N1.6 kmh N 4.0 mph6.4 kmh 29.35 in993.9 mb 0.00 in0.0 mm 0.00 in0.0 mm 0.02 in0.5 mm
09:50 PM 24.9°F-3.9°C 18.7°F-7.4°C 77% 1.0 mph N1.6 kmh N 4.0 mph6.4 kmh 29.35 in993.9 mb 0.00 in0.0 mm 0.00 in0.0 mm 0.02 in0.5 mm
09:55 PM 24.7°F-4.1°C 18.8°F-7.3°C 78% 1.0 mph N1.6 kmh N 4.0 mph6.4 kmh 29.35 in993.9 mb 0.00 in0.0 mm 0.00 in0.0 mm 0.02 in0.5 mm
10:00 PM 24.7°F-4.1°C 19.1°F-7.2°C 79% 1.0 mph N1.6 kmh N 3.0 mph4.8 kmh 29.35 in993.9 mb 0.00 in0.0 mm 0.00 in0.0 mm 0.02 in0.5 mm
10:05 PM 24.5°F-4.2°C 18.6°F-7.4°C 78% 1.0 mph N1.6 kmh N 3.0 mph4.8 kmh 29.34 in993.6 mb 0.00 in0.0 mm 0.00 in0.0 mm 0.02 in0.5 mm
10:10 PM 24.3°F-4.3°C 18.4°F-7.6°C 78% 1.0 mph N1.6 kmh N 5.0 mph8.0 kmh 29.34 in993.6 mb 0.00 in0.0 mm 0.00 in0.0 mm 0.02 in0.5 mm
10:15 PM 24.0°F-4.4°C 17.8°F-7.9°C 77% 1.0 mph N1.6 kmh N 5.0 mph8.0 kmh 29.34 in993.6 mb 0.00 in0.0 mm 0.00 in0.0 mm 0.02 in0.5 mm
10:20 PM 23.8°F-4.6°C 17.9°F-7.8°C 78% Calm Calm 3.0 mph4.8 kmh 29.34 in993.6 mb 0.00 in0.0 mm 0.00 in0.0 mm 0.02 in0.5 mm
10:25 PM 23.7°F-4.6°C 18.1°F-7.7°C 79% 1.0 mph N1.6 kmh N 3.0 mph4.8 kmh 29.34 in993.6 mb 0.00 in0.0 mm 0.00 in0.0 mm 0.02 in0.5 mm
10:30 PM 23.5°F-4.7°C 17.6°F-8.0°C 78% 1.0 mph N1.6 kmh N 3.0 mph4.8 kmh 29.34 in993.6 mb 0.00 in0.0 mm 0.00 in0.0 mm 0.02 in0.5 mm
10:35 PM 23.3°F-4.8°C 17.7°F-7.9°C 79% 1.0 mph N1.6 kmh N 3.0 mph4.8 kmh 29.34 in993.6 mb 0.00 in0.0 mm 0.00 in0.0 mm 0.02 in0.5 mm
10:40 PM 23.1°F-4.9°C 17.6°F-8.0°C 79% 1.0 mph N1.6 kmh N 3.0 mph4.8 kmh 29.34 in993.6 mb 0.00 in0.0 mm 0.00 in0.0 mm 0.02 in0.5 mm
10:45 PM 22.9°F-5.1°C 17.4°F-8.1°C 79% 1.0 mph N1.6 kmh N 3.0 mph4.8 kmh 29.34 in993.6 mb 0.00 in0.0 mm 0.00 in0.0 mm 0.02 in0.5 mm
10:50 PM 22.7°F-5.2°C 16.9°F-8.4°C 78% 1.0 mph N1.6 kmh N 3.0 mph4.8 kmh 29.34 in993.6 mb 0.00 in0.0 mm 0.00 in0.0 mm 0.02 in0.5 mm
10:55 PM 22.5°F-5.3°C 17.0°F-8.3°C 79% 1.0 mph N1.6 kmh N 3.0 mph4.8 kmh 29.34 in993.6 mb 0.00 in0.0 mm 0.00 in0.0 mm 0.02 in0.5 mm
11:00 PM 22.3°F-5.4°C 16.8°F-8.4°C 79% 1.0 mph N1.6 kmh N 3.0 mph4.8 kmh 29.34 in993.6 mb 0.00 in0.0 mm 0.00 in0.0 mm 0.02 in0.5 mm
11:05 PM 22.0°F-5.6°C 16.8°F-8.4°C 80% Calm Calm 3.0 mph4.8 kmh 29.33 in993.2 mb 0.00 in0.0 mm 0.00 in0.0 mm 0.02 in0.5 mm
11:10 PM 21.8°F-5.7°C 16.6°F-8.6°C 80% Calm Calm 2.0 mph3.2 kmh 29.33 in993.2 mb 0.00 in0.0 mm 0.00 in0.0 mm 0.02 in0.5 mm
11:15 PM 21.6°F-5.8°C 16.4°F-8.7°C 80% Calm Calm 2.0 mph3.2 kmh 29.33 in993.2 mb 0.00 in0.0 mm 0.00 in0.0 mm 0.02 in0.5 mm
11:20 PM 21.4°F-5.9°C 16.5°F-8.6°C 81% Calm Calm 2.0 mph3.2 kmh 29.33 in993.2 mb 0.00 in0.0 mm 0.00 in0.0 mm 0.02 in0.5 mm
11:25 PM 21.2°F-6.0°C 16.3°F-8.7°C 81% Calm Calm 2.0 mph3.2 kmh 29.33 in993.2 mb 0.00 in0.0 mm 0.00 in0.0 mm 0.02 in0.5 mm
11:30 PM 21.1°F-6.1°C 16.2°F-8.8°C 81% Calm Calm 2.0 mph3.2 kmh 29.33 in993.2 mb 0.00 in0.0 mm 0.00 in0.0 mm 0.02 in0.5 mm
11:35 PM 21.1°F-6.1°C 16.5°F-8.6°C 82% Calm Calm 2.0 mph3.2 kmh 29.33 in993.2 mb 0.00 in0.0 mm 0.00 in0.0 mm 0.02 in0.5 mm
11:40 PM 21.1°F-6.1°C 16.2°F-8.8°C 81% 1.0 mph N1.6 kmh N 3.0 mph4.8 kmh 29.33 in993.2 mb 0.00 in0.0 mm 0.00 in0.0 mm 0.02 in0.5 mm
11:45 PM 20.8°F-6.2°C 15.9°F-8.9°C 81% 1.0 mph N1.6 kmh N 3.0 mph4.8 kmh 29.33 in993.2 mb 0.00 in0.0 mm 0.00 in0.0 mm 0.02 in0.5 mm
11:50 PM 20.5°F-6.4°C 15.6°F-9.1°C 81% 1.0 mph N1.6 kmh N 3.0 mph4.8 kmh 29.33 in993.2 mb 0.00 in0.0 mm 0.00 in0.0 mm 0.02 in0.5 mm
11:55 PM 20.2°F-6.6°C 15.3°F-9.3°C 81% 1.0 mph N1.6 kmh N 3.0 mph4.8 kmh 29.33 in993.2 mb 0.00 in0.0 mm 0.00 in0.0 mm 0.02 in0.5 mm